Time;durP1;ratioP1;P1;durP2;ratioP2;P2;SDS_P1;SDS_P2;PMS_P1;PMS_P2;Temp;Humidity;BMP_temperature;BMP_pressure;BME280_temperature;BME280_humidity;BME280_pressure;Samples;Min_cycle;Max_cycle;Signal;HPM_P1;HPM_P2
2022/03/08 00:00:24;;;;;;;7.85;6.65;;;;;;;-0.48;52.67;101895.19;690770;28;1182;-88
2022/03/08 00:00:45;;;;;;;7.60;6.78;;;;;;;-0.38;52.89;101913.22;691075;28;937;-87
2022/03/08 00:01:06;;;;;;;8.03;7.00;;;;;;;-0.45;52.84;101904.06;693693;28;1176;-88
2022/03/08 00:01:28;;;;;;;8.65;7.20;;;;;;;-0.36;52.98;101924.53;694234;28;1169;-88
2022/03/08 00:01:49;;;;;;;9.88;7.47;;;;;;;-0.44;52.97;101910.09;693658;28;1400;-87
2022/03/08 00:02:09;;;;;;;9.23;7.27;;;;;;;-0.48;52.70;101900.31;693602;28;1191;-88
2022/03/08 00:02:31;;;;;;;9.50;7.38;;;;;;;-0.48;52.63;101900.31;690694;28;1221;-88
2022/03/08 00:02:52;;;;;;;11.90;7.60;;;;;;;-0.46;52.89;101896.22;690596;28;1216;-88
2022/03/08 00:03:12;;;;;;;12.50;7.47;;;;;;;-0.49;53.10;101893.38;691251;28;1127;-88
2022/03/08 00:03:34;;;;;;;13.68;7.40;;;;;;;-0.47;53.04;101892.78;691138;28;783;-88
2022/03/08 00:03:55;;;;;;;12.68;7.30;;;;;;;-0.45;52.97;101896.38;690824;28;1202;-88
2022/03/08 00:04:15;;;;;;;12.30;7.40;;;;;;;-0.41;52.62;101895.00;693667;28;1192;-88
2022/03/08 00:04:36;;;;;;;10.43;7.30;;;;;;;-0.41;52.76;101897.56;693129;28;1213;-88
2022/03/08 00:04:56;;;;;;;8.50;6.97;;;;;;;-0.33;52.76;101901.72;693746;28;1095;-88
2022/03/08 00:05:18;;;;;;;8.80;6.97;;;;;;;-0.42;52.70;101880.38;690887;28;1224;-88
2022/03/08 00:05:39;;;;;;;8.60;6.80;;;;;;;-0.37;52.72;101893.59;691022;28;909;-87
2022/03/08 00:06:00;;;;;;;8.55;7.07;;;;;;;-0.30;52.88;101904.53;696339;28;1241;-88
2022/03/08 00:06:21;;;;;;;8.93;7.10;;;;;;;-0.43;52.65;101889.72;696389;28;1387;-89
2022/03/08 00:06:42;;;;;;;9.00;7.30;;;;;;;-0.43;52.69;101883.69;688204;28;1279;-88
2022/03/08 00:07:03;;;;;;;9.57;7.55;;;;;;;-0.34;52.75;101899.00;689031;28;1167;-88
2022/03/08 00:07:24;;;;;;;9.27;7.55;;;;;;;-0.44;52.95;101881.91;693346;28;1231;-88
2022/03/08 00:07:46;;;;;;;9.18;7.70;;;;;;;-0.41;52.84;101892.41;689529;28;1217;-88
2022/03/08 00:08:07;;;;;;;8.32;7.30;;;;;;;-0.44;53.00;101880.22;691395;28;987;-89
2022/03/08 00:08:28;;;;;;;8.30;7.27;;;;;;;-0.42;52.93;101890.63;690968;28;2239;-88
2022/03/08 00:08:48;;;;;;;8.50;7.30;;;;;;;-0.45;53.26;101885.22;691111;28;1203;-88
2022/03/08 00:09:10;;;;;;;9.15;7.32;;;;;;;-0.40;53.17;101899.34;691024;28;1270;-88
2022/03/08 00:09:30;;;;;;;8.55;7.10;;;;;;;-0.40;52.97;101899.34;690623;28;1023;-88
2022/03/08 00:09:51;;;;;;;9.77;7.17;;;;;;;-0.38;52.89;101907.19;688261;28;1201;-88
2022/03/08 00:10:11;;;;;;;9.93;7.28;;;;;;;-0.52;53.26;101883.75;693698;28;1007;-88
2022/03/08 00:10:32;;;;;;;10.70;7.60;;;;;;;-0.51;53.08;101887.22;696677;28;806;-88
2022/03/08 00:10:53;;;;;;;10.00;7.43;;;;;;;-0.45;53.04;101901.50;693718;28;1326;-88
2022/03/08 00:11:16;;;;;;;9.30;7.35;;;;;;;-0.51;53.01;101882.09;688248;28;1197;-88
2022/03/08 00:11:37;;;;;;;9.73;7.50;;;;;;;-0.38;53.19;101902.94;691174;28;1438;-88
2022/03/08 00:11:58;;;;;;;9.57;7.75;;;;;;;-0.41;53.13;101902.69;693776;28;1157;-88
2022/03/08 00:12:18;;;;;;;10.15;7.85;;;;;;;-0.42;53.07;101903.44;693757;28;947;-88
2022/03/08 00:12:39;;;;;;;9.38;7.65;;;;;;;-0.45;53.47;101885.22;691156;28;704;-88
2022/03/08 00:13:00;;;;;;;8.60;7.10;;;;;;;-0.44;53.25;101898.16;690990;28;1067;-88
2022/03/08 00:13:21;;;;;;;8.27;7.10;;;;;;;-0.44;53.35;101898.16;688384;28;1247;-88
2022/03/08 00:13:42;;;;;;;8.38;7.20;;;;;;;-0.54;53.14;101866.41;690984;28;1303;-88
2022/03/08 00:14:03;;;;;;;8.50;7.10;;;;;;;-0.53;53.13;101883.59;693722;28;992;-89
2022/03/08 00:14:43;;;;;;;9.40;7.32;;;;;;;-0.37;53.37;101899.66;693750;28;1311;-88
2022/03/08 00:15:11;;;;;;;11.18;7.90;;;;;;;-0.37;53.17;101894.53;693261;28;1568;-88
2022/03/08 00:15:32;;;;;;;11.05;8.00;;;;;;;-0.41;53.15;101871.91;692522;28;1117;-88
2022/03/08 00:15:52;;;;;;;11.32;8.10;;;;;;;-0.39;53.17;101875.50;691023;28;1299;-87
2022/03/08 00:16:13;;;;;;;10.10;7.90;;;;;;;-0.30;53.17;101889.16;693511;28;1065;-88
2022/03/08 00:16:33;;;;;;;11.43;7.70;;;;;;;-0.28;52.87;101894.44;691047;28;1206;-88
2022/03/08 00:16:55;;;;;;;11.37;7.70;;;;;;;-0.34;52.97;101879.38;693026;28;1314;-88
2022/03/08 00:17:15;;;;;;;11.52;7.68;;;;;;;-0.30;52.97;101884.03;693743;28;1119;-88
2022/03/08 00:17:36;;;;;;;10.40;7.88;;;;;;;-0.34;52.95;101879.38;690942;28;1321;-88
2022/03/08 00:17:56;;;;;;;9.32;7.50;;;;;;;-0.25;52.84;101893.81;688451;28;1078;-88
2022/03/08 00:18:17;;;;;;;9.13;7.67;;;;;;;-0.30;52.73;101886.59;688378;28;960;-88
2022/03/08 00:18:38;;;;;;;8.87;7.33;;;;;;;-0.31;52.81;101879.66;691012;28;759;-87
2022/03/08 00:18:58;;;;;;;9.15;7.35;;;;;;;-0.23;52.95;101895.75;690988;28;1085;-87
2022/03/08 00:19:19;;;;;;;10.90;7.75;;;;;;;-0.33;53.03;101880.31;692880;28;1301;-88
2022/03/08 00:19:39;;;;;;;10.60;8.00;;;;;;;-0.23;52.93;101892.28;694509;28;1342;-88
2022/03/08 00:20:00;;;;;;;11.15;7.93;;;;;;;-0.27;53.14;101882.50;693780;28;995;-88
2022/03/08 00:20:21;;;;;;;9.68;7.68;;;;;;;-0.19;52.82;101899.50;693696;28;1376;-88
2022/03/08 00:20:42;;;;;;;9.77;7.35;;;;;;;-0.27;52.85;101891.09;696383;28;880;-88
2022/03/08 00:21:04;;;;;;;9.05;7.57;;;;;;;-0.30;53.06;101881.44;693547;28;1499;-88
2022/03/08 00:21:25;;;;;;;9.90;7.63;;;;;;;-0.32;52.75;101888.13;691093;28;1333;-88
2022/03/08 00:21:46;;;;;;;9.68;7.72;;;;;;;-0.32;52.83;101888.13;693835;28;795;-88
2022/03/08 00:22:06;;;;;;;10.02;7.65;;;;;;;-0.28;52.91;101896.13;692695;28;1101;-88
2022/03/08 00:22:27;;;;;;;8.67;7.37;;;;;;;-0.39;52.86;101883.19;696607;28;767;-88
2022/03/08 00:22:48;;;;;;;9.60;7.36;;;;;;;-0.35;53.09;101886.94;691068;28;814;-88
2022/03/08 00:23:33;;;;;;;9.70;7.70;;;;;;;-0.26;53.14;101899.72;692722;28;1177;-87
2022/03/08 00:23:55;;;;;;;8.55;7.38;;;;;;;-0.38;52.90;101874.72;696240;28;1297;-88
2022/03/08 00:24:16;;;;;;;8.70;7.30;;;;;;;-0.25;53.03;101896.38;693659;28;1070;-87
2022/03/08 00:24:37;;;;;;;10.20;7.57;;;;;;;-0.34;52.86;101884.53;696300;28;1378;-88
2022/03/08 00:24:59;;;;;;;9.93;7.80;;;;;;;-0.31;52.87;101882.22;693555;28;1221;-87
2022/03/08 00:25:23;;;;;;;9.65;7.95;;;;;;;-0.35;53.08;101872.47;691123;28;767;-88
2022/03/08 00:25:44;;;;;;;8.40;7.50;;;;;;;-0.34;53.08;101884.53;688292;28;1312;-88
2022/03/08 00:26:05;;;;;;;7.78;6.93;;;;;;;-0.32;52.95;101882.09;688207;28;1106;-89
2022/03/08 00:26:26;;;;;;;7.82;6.72;;;;;;;-0.32;53.11;101877.84;694076;28;1185;-88
2022/03/08 00:26:47;;;;;;;8.77;7.20;;;;;;;-0.34;52.70;101871.69;696451;28;1236;-88
2022/03/08 00:27:08;;;;;;;9.07;7.50;;;;;;;-0.31;52.55;101884.78;696400;28;987;-88
2022/03/08 00:27:34;;;;;;;8.70;7.38;;;;;;;-0.32;53.04;101883.00;696441;28;1121;-88
2022/03/08 00:27:57;;;;;;;8.10;6.97;;;;;;;-0.38;52.84;101877.28;693635;28;1272;-88
2022/03/08 00:28:18;;;;;;;8.77;7.22;;;;;;;-0.37;52.90;101879.13;688350;28;1347;-87
2022/03/08 00:28:39;;;;;;;8.35;7.18;;;;;;;-0.42;52.89;101870.09;688237;28;1980;-88
2022/03/08 00:29:01;;;;;;;8.25;7.22;;;;;;;-0.37;52.85;101880.78;690920;28;1396;-88
2022/03/08 00:29:22;;;;;;;8.10;7.30;;;;;;;-0.44;53.06;101876.78;693640;28;1192;-89
2022/03/08 00:29:43;;;;;;;7.82;7.03;;;;;;;-0.49;52.86;101873.78;693230;28;818;-88
2022/03/08 00:30:06;;;;;;;8.18;7.18;;;;;;;-0.48;53.16;101873.03;690560;28;1005;-88
2022/03/08 00:30:27;;;;;;;10.20;7.20;;;;;;;-0.48;53.20;101872.09;690457;28;1513;-88
2022/03/08 00:30:49;;;;;;;10.50;7.30;;;;;;;-0.41;53.13;101892.41;690971;28;823;-87
2022/03/08 00:31:09;;;;;;;10.83;7.50;;;;;;;-0.43;53.18;101888.81;693601;28;1231;-88
2022/03/08 00:31:30;;;;;;;9.33;7.30;;;;;;;-0.49;53.17;101867.75;691869;28;1202;-88
2022/03/08 00:31:51;;;;;;;12.43;7.20;;;;;;;-0.48;53.04;101874.66;690902;28;1183;-88
2022/03/08 00:32:11;;;;;;;14.10;7.28;;;;;;;-0.51;53.04;101874.41;688133;28;1173;-88
2022/03/08 00:32:32;;;;;;;15.40;7.50;;;;;;;-0.37;53.31;101897.09;690975;28;1138;-88
2022/03/08 00:32:53;;;;;;;13.80;7.40;;;;;;;-0.41;53.27;101887.28;690854;28;1245;-88
2022/03/08 00:33:14;;;;;;;10.90;7.00;;;;;;;-0.49;53.38;101867.75;693688;28;1192;-88
2022/03/08 00:33:34;;;;;;;10.05;6.90;;;;;;;-0.44;53.10;101872.53;688256;28;1185;-88
2022/03/08 00:33:57;;;;;;;8.25;7.03;;;;;;;-0.45;53.42;101869.84;690897;28;1255;-88
2022/03/08 00:34:17;;;;;;;8.77;7.63;;;;;;;-0.37;53.14;101879.13;690985;28;1030;-88
2022/03/08 00:34:38;;;;;;;8.52;7.65;;;;;;;-0.42;53.17;101870.09;693679;28;1151;-87
2022/03/08 00:34:58;;;;;;;9.10;7.80;;;;;;;-0.37;53.16;101874.00;693056;28;1236;-87
2022/03/08 00:35:20;;;;;;;8.98;7.55;;;;;;;-0.33;53.06;101883.75;690810;28;1164;-88
2022/03/08 00:35:41;;;;;;;9.30;7.50;;;;;;;-0.30;53.00;101885.69;691145;28;834;-87
2022/03/08 00:36:02;;;;;;;8.15;6.97;;;;;;;-0.22;53.04;101894.06;693505;28;1345;-88
2022/03/08 00:36:23;;;;;;;8.98;7.47;;;;;;;-0.26;53.11;101885.19;690927;28;1094;-88
2022/03/08 00:36:44;;;;;;;9.02;7.60;;;;;;;-0.28;53.25;101878.16;688385;28;827;-88
2022/03/08 00:37:06;;;;;;;9.70;7.68;;;;;;;-0.31;53.00;101877.09;688030;28;1257;-88
2022/03/08 00:37:27;;;;;;;8.57;6.93;;;;;;;-0.33;53.16;101872.59;690924;28;878;-88
2022/03/08 00:37:49;;;;;;;7.78;6.93;;;;;;;-0.23;53.06;101887.16;691067;28;846;-88
2022/03/08 00:38:10;;;;;;;7.60;6.80;;;;;;;-0.23;52.95;101887.16;690796;28;1244;-88
2022/03/08 00:38:31;;;;;;;9.20;7.10;;;;;;;-0.31;52.98;101879.66;690892;28;1039;-88
2022/03/08 00:38:52;;;;;;;9.70;7.40;;;;;;;-0.34;52.86;101868.22;693708;28;1064;-88
2022/03/08 00:39:12;;;;;;;10.32;7.32;;;;;;;-0.32;53.13;101876.97;693488;28;1264;-88
2022/03/08 00:39:34;;;;;;;9.10;7.10;;;;;;;-0.25;52.88;101886.13;695518;28;1278;-88
2022/03/08 00:39:54;;;;;;;8.32;6.70;;;;;;;-0.30;53.08;101880.56;693462;28;1324;-88
2022/03/08 00:40:18;;;;;;;7.90;6.97;;;;;;;-0.33;53.05;101873.50;693521;28;1154;-88
2022/03/08 00:40:40;;;;;;;8.02;7.22;;;;;;;-0.35;53.03;101877.59;691046;28;798;-88
2022/03/08 00:41:00;;;;;;;8.93;7.40;;;;;;;-0.36;53.03;101880.94;691031;28;1089;-88
2022/03/08 00:41:21;;;;;;;9.02;7.45;;;;;;;-0.40;53.14;101873.69;693271;28;1169;-88
2022/03/08 00:41:43;;;;;;;9.45;7.28;;;;;;;-0.31;52.98;101892.47;693682;28;1164;-88
2022/03/08 00:42:04;;;;;;;9.18;7.05;;;;;;;-0.41;53.07;101871.00;690681;28;1336;-88
2022/03/08 00:42:24;;;;;;;8.80;6.80;;;;;;;-0.41;53.06;101882.16;693551;28;1112;-88
2022/03/08 00:42:45;;;;;;;7.93;6.68;;;;;;;-0.43;53.18;101884.56;693543;28;1159;-88
2022/03/08 00:43:06;;;;;;;7.78;6.85;;;;;;;-0.45;52.98;101882.66;693394;28;1267;-88
2022/03/08 00:43:28;;;;;;;8.02;6.95;;;;;;;-0.50;53.64;101876.19;690916;28;1362;-88
2022/03/08 00:43:49;;;;;;;11.03;7.50;;;;;;;-0.48;53.36;101888.41;693698;28;1274;-87
2022/03/08 00:44:10;;;;;;;11.10;7.20;;;;;;;-0.44;53.38;101887.03;690803;28;1212;-88
2022/03/08 00:44:30;;;;;;;11.00;7.45;;;;;;;-0.48;53.47;101897.75;693650;28;1340;-88
2022/03/08 00:44:51;;;;;;;8.47;7.30;;;;;;;-0.51;53.39;101884.66;693805;28;885;-87
2022/03/08 00:45:12;;;;;;;9.10;7.40;;;;;;;-0.62;53.44;101864.06;690887;28;1164;-88
2022/03/08 00:45:33;;;;;;;9.50;7.20;;;;;;;-0.61;53.34;101872.66;690797;28;1292;-88
2022/03/08 00:45:54;;;;;;;9.52;7.50;;;;;;;-0.58;53.44;101876.41;693709;28;1148;-88
2022/03/08 00:46:15;;;;;;;8.77;7.45;;;;;;;-0.52;53.66;101876.06;693668;28;993;-88
2022/03/08 00:46:36;;;;;;;9.68;7.47;;;;;;;-0.54;53.18;101874.09;693666;28;1300;-88
2022/03/08 00:46:57;;;;;;;9.40;7.05;;;;;;;-0.50;53.61;101886.47;690914;28;1004;-88
2022/03/08 00:47:17;;;;;;;9.65;7.18;;;;;;;-0.55;53.47;101877.44;690962;28;1277;-88
2022/03/08 00:47:39;;;;;;;8.53;7.20;;;;;;;-0.57;53.53;101880.75;696275;28;1182;-88
2022/03/08 00:48:01;;;;;;;8.30;7.07;;;;;;;-0.56;53.70;101871.44;693273;28;999;-88
2022/03/08 00:48:22;;;;;;;7.97;6.93;;;;;;;-0.52;53.50;101891.44;690736;28;795;-88
2022/03/08 00:48:43;;;;;;;9.85;7.22;;;;;;;-0.54;54.00;101881.81;690896;28;1967;-87
2022/03/08 00:49:04;;;;;;;9.57;7.43;;;;;;;-0.57;53.58;101885.91;690707;28;1324;-88
2022/03/08 00:49:25;;;;;;;9.32;7.50;;;;;;;-0.60;53.52;101879.59;690966;28;724;-87
2022/03/08 00:49:47;;;;;;;8.25;7.43;;;;;;;-0.62;53.77;101871.75;686983;28;1127;-88
2022/03/08 00:50:12;;;;;;;8.50;7.50;;;;;;;-0.59;53.68;101879.72;693494;28;1250;-88
2022/03/08 00:50:34;;;;;;;9.00;7.03;;;;;;;-0.57;53.74;101885.91;693641;28;965;-88
2022/03/08 00:50:54;;;;;;;8.45;6.90;;;;;;;-0.53;53.69;101886.16;694742;28;1677;-87
2022/03/08 00:51:15;;;;;;;8.45;6.70;;;;;;;-0.62;53.88;101874.31;692424;28;1234;-88
2022/03/08 00:51:36;;;;;;;7.77;6.90;;;;;;;-0.60;53.86;101877.94;690990;28;819;-88
2022/03/08 00:51:56;;;;;;;8.80;7.20;;;;;;;-0.47;53.65;101897.91;688040;28;1381;-88
2022/03/08 00:52:17;;;;;;;9.93;7.18;;;;;;;-0.60;54.13;101864.19;691011;28;1070;-88
2022/03/08 00:52:38;;;;;;;9.68;6.95;;;;;;;-0.48;53.87;101887.50;690438;28;1149;-88
2022/03/08 00:52:59;;;;;;;8.80;6.90;;;;;;;-0.48;53.98;101878.16;690912;28;877;-88
2022/03/08 00:53:20;;;;;;;7.93;6.70;;;;;;;-0.43;54.11;101883.69;688100;28;1370;-88
2022/03/08 00:53:41;;;;;;;8.82;6.90;;;;;;;-0.44;53.75;101872.53;688223;28;1287;-88
2022/03/08 00:54:02;;;;;;;10.77;7.18;;;;;;;-0.44;53.65;101871.63;691873;28;1478;-88
2022/03/08 00:54:23;;;;;;;10.98;7.32;;;;;;;-0.38;53.59;101879.84;693614;28;784;-88
2022/03/08 00:54:44;;;;;;;11.52;7.28;;;;;;;-0.41;53.65;101873.56;688148;28;1213;-88
2022/03/08 00:55:45;;;;;;;10.23;7.00;;;;;;;-0.34;53.56;101884.53;687923;28;1366;-88
2022/03/08 00:56:05;;;;;;;8.85;6.60;;;;;;;-0.44;53.53;101861.38;690690;28;1296;-87
2022/03/08 00:56:26;;;;;;;8.50;6.53;;;;;;;-0.44;53.54;101863.94;693883;28;1189;-88
2022/03/08 00:56:46;;;;;;;8.38;6.75;;;;;;;-0.43;53.61;101869.19;690846;28;1202;-88
2022/03/08 00:57:07;;;;;;;9.17;7.10;;;;;;;-0.45;53.47;101860.47;696423;28;1250;-88
2022/03/08 00:57:28;;;;;;;9.52;6.93;;;;;;;-0.48;53.57;101856.72;692517;28;1304;-88
2022/03/08 00:57:50;;;;;;;9.82;7.00;;;;;;;-0.43;53.55;101870.88;693424;28;1276;-88
2022/03/08 00:58:10;;;;;;;10.50;7.30;;;;;;;-0.44;53.59;101866.50;693567;28;1165;-89
2022/03/08 00:58:31;;;;;;;9.68;7.45;;;;;;;-0.43;53.45;101864.06;693702;28;1121;-88
2022/03/08 00:58:52;;;;;;;9.67;7.40;;;;;;;-0.43;53.59;101863.19;690835;28;1256;-88
2022/03/08 00:59:12;;;;;;;8.00;6.72;;;;;;;-0.46;53.67;101862.88;691005;28;1024;-88
2022/03/08 00:59:34;;;;;;;8.75;6.80;;;;;;;-0.43;53.70;101868.31;690505;28;1434;-88
2022/03/08 00:59:54;;;;;;;8.47;6.87;;;;;;;-0.46;53.54;101866.34;690454;28;1176;-87
2022/03/08 01:00:19;;;;;;;8.35;7.07;;;;;;;-0.50;53.78;101863.38;685311;28;1477;-88
2022/03/08 01:00:40;;;;;;;9.48;7.28;;;;;;;-0.48;53.66;101865.34;688264;28;1246;-88
2022/03/08 01:01:01;;;;;;;9.18;7.10;;;;;;;-0.48;53.97;101864.41;690894;28;1075;-88
2022/03/08 01:01:22;;;;;;;9.00;7.30;;;;;;;-0.52;53.70;101857.22;696321;28;1332;-88
2022/03/08 01:01:42;;;;;;;9.60;7.55;;;;;;;-0.58;53.85;101848.19;693592;28;1256;-88
2022/03/08 01:02:03;;;;;;;9.97;7.70;;;;;;;-0.53;53.95;101851.19;690828;28;1243;-88
2022/03/08 01:02:24;;;;;;;9.50;7.13;;;;;;;-0.53;53.83;101853.75;693691;28;834;-88
2022/03/08 01:02:45;;;;;;;10.07;7.20;;;;;;;-0.54;53.72;101843.34;693630;28;1043;-88
2022/03/08 01:03:06;;;;;;;9.95;7.32;;;;;;;-0.49;53.95;101857.47;690569;28;1262;-88
2022/03/08 01:03:27;;;;;;;9.10;7.45;;;;;;;-0.52;53.65;101842.72;693636;28;1220;-88
2022/03/08 01:03:47;;;;;;;8.93;7.47;;;;;;;-0.49;53.84;101847.22;690860;28;1281;-88
2022/03/08 01:04:08;;;;;;;9.27;7.30;;;;;;;-0.51;53.65;101838.50;696028;28;1214;-88
2022/03/08 01:04:29;;;;;;;8.40;7.00;;;;;;;-0.38;53.78;101856.78;693589;28;743;-87
2022/03/08 01:04:49;;;;;;;9.32;7.20;;;;;;;-0.38;53.87;101851.66;690886;28;1166;-88
2022/03/08 01:05:11;;;;;;;11.15;7.53;;;;;;;-0.44;53.66;101843.44;693363;28;1178;-87
2022/03/08 01:05:32;;;;;;;13.20;7.72;;;;;;;-0.33;53.72;101854.66;690984;28;783;-88
2022/03/08 01:05:52;;;;;;;13.93;7.10;;;;;;;-0.33;53.43;101845.28;693449;28;1102;-88
2022/03/08 01:06:13;;;;;;;11.73;6.53;;;;;;;-0.39;53.67;101834.47;696275;28;1068;-89
2022/03/08 01:06:35;;;;;;;9.50;6.20;;;;;;;-0.37;53.62;101837.16;693621;28;1098;-88
2022/03/08 01:07:02;;;;;;;9.05;6.43;;;;;;;-0.25;53.58;101856.25;699010;28;1182;-89
2022/03/08 01:07:22;;;;;;;9.75;6.68;;;;;;;-0.33;53.54;101845.28;693481;28;1030;-88
2022/03/08 01:07:44;;;;;;;9.70;6.97;;;;;;;-0.35;53.24;101846.81;693638;28;802;-88
2022/03/08 01:08:05;;;;;;;10.23;7.40;;;;;;;-0.36;53.40;101845.00;693382;28;1118;-88
2022/03/08 01:08:26;;;;;;;9.13;7.45;;;;;;;-0.37;53.66;101840.66;693669;28;926;-88
2022/03/08 01:08:48;;;;;;;9.95;7.22;;;;;;;-0.27;53.39;101851.72;693380;28;1962;-87
2022/03/08 01:09:09;;;;;;;9.43;6.90;;;;;;;-0.29;53.65;101846.44;690814;28;1125;-88
2022/03/08 01:09:29;;;;;;;8.65;6.55;;;;;;;-0.34;53.67;101837.44;693118;28;1051;-87
2022/03/08 01:09:50;;;;;;;7.10;6.30;;;;;;;-0.34;53.55;101838.34;696236;28;943;-87
2022/03/08 01:10:15;;;;;;;7.95;6.80;;;;;;;-0.37;53.68;101832.03;693492;28;1101;-88
2022/03/08 01:10:36;;;;;;;8.43;6.97;;;;;;;-0.28;53.54;101842.25;691086;28;787;-88
2022/03/08 01:10:56;;;;;;;10.10;6.70;;;;;;;-0.32;53.73;101834.25;688271;28;1206;-88
2022/03/08 01:11:17;;;;;;;9.73;6.75;;;;;;;-0.23;53.51;101846.09;690937;28;1290;-88
2022/03/08 01:11:39;;;;;;;10.30;6.90;;;;;;;-0.20;53.60;101846.38;693812;28;830;-87
2022/03/08 01:12:02;;;;;;;8.90;7.03;;;;;;;-0.22;53.39;101842.75;690731;28;1327;-88
2022/03/08 01:12:23;;;;;;;8.00;6.82;;;;;;;-0.27;53.27;101828.63;693352;28;1164;-88
2022/03/08 01:12:46;;;;;;;7.93;6.80;;;;;;;-0.24;53.36;101834.03;688140;28;1273;-88
2022/03/08 01:13:06;;;;;;;10.73;7.60;;;;;;;-0.13;53.58;101847.81;689999;28;1376;-88
2022/03/08 01:13:27;;;;;;;10.80;7.32;;;;;;;-0.14;53.18;101831.50;690872;28;1322;-88
2022/03/08 01:13:48;;;;;;;10.05;7.38;;;;;;;-0.03;52.83;101838.50;693533;28;1161;-88
2022/03/08 01:14:09;;;;;;;8.60;6.73;;;;;;;-0.12;52.95;101840.25;695880;28;1467;-87
2022/03/08 01:14:30;;;;;;;8.93;6.90;;;;;;;-0.25;53.24;101827.09;693720;28;755;-87
2022/03/08 01:14:52;;;;;;;7.93;6.50;;;;;;;-0.25;53.49;101825.44;693644;28;900;-88
2022/03/08 01:15:13;;;;;;;7.53;6.60;;;;;;;-0.14;53.04;101826.38;690795;28;957;-87
2022/03/08 01:15:35;;;;;;;7.20;6.50;;;;;;;-0.13;52.91;101838.47;698989;28;1370;-88
2022/03/08 01:15:56;;;;;;;8.20;6.72;;;;;;;-0.17;53.21;101833.81;693421;28;1059;-88
2022/03/08 01:16:16;;;;;;;8.20;6.68;;;;;;;-0.23;53.00;101830.69;693377;28;1226;-88
2022/03/08 01:16:37;;;;;;;9.10;6.70;;;;;;;-0.30;53.24;101822.44;690820;28;838;-88
2022/03/08 01:16:58;;;;;;;8.27;6.60;;;;;;;-0.26;53.17;101828.75;693739;28;1270;-88
2022/03/08 01:17:18;;;;;;;8.60;6.70;;;;;;;-0.25;53.29;101839.94;693552;28;1225;-88
2022/03/08 01:17:39;;;;;;;8.25;6.97;;;;;;;-0.34;53.42;101828.09;696342;28;779;-87
2022/03/08 01:18:15;;;;;;;8.18;7.07;;;;;;;-0.40;53.42;101822.41;699032;28;1123;-87
2022/03/08 01:18:36;;;;;;;7.53;6.70;;;;;;;-0.37;53.42;101832.94;690673;28;1113;-88
2022/03/08 01:18:56;;;;;;;8.02;6.80;;;;;;;-0.43;53.46;101824.69;689946;28;1284;-88
2022/03/08 01:19:17;;;;;;;8.33;7.00;;;;;;;-0.45;53.25;101828.81;693655;28;997;-88
2022/03/08 01:19:39;;;;;;;8.07;7.20;;;;;;;-0.48;53.38;101826.84;695447;28;1329;-88
2022/03/08 01:20:00;;;;;;;8.13;7.32;;;;;;;-0.51;53.23;101825.69;690756;28;1241;-88
2022/03/08 01:20:20;;;;;;;8.40;7.45;;;;;;;-0.43;53.60;101840.09;690717;28;1233;-88
2022/03/08 01:20:41;;;;;;;9.30;7.70;;;;;;;-0.44;53.78;101840.84;688139;28;903;-88
2022/03/08 01:21:02;;;;;;;9.05;7.38;;;;;;;-0.40;53.63;101855.75;690622;28;1213;-88
2022/03/08 01:21:23;;;;;;;7.90;6.60;;;;;;;-0.50;53.56;101827.47;688028;28;1274;-88
2022/03/08 01:21:43;;;;;;;9.48;5.95;;;;;;;-0.42;53.50;101844.47;693477;28;1161;-88
2022/03/08 01:22:05;;;;;;;9.82;6.10;;;;;;;-0.46;53.74;101853.53;693581;28;1008;-88
2022/03/08 01:22:25;;;;;;;11.50;6.85;;;;;;;-0.56;53.78;101830.41;690415;28;1152;-87
2022/03/08 01:22:47;;;;;;;9.77;7.07;;;;;;;-0.51;53.65;101835.94;690979;28;780;-88
2022/03/08 01:23:10;;;;;;;11.50;7.13;;;;;;;-0.55;53.99;101836.41;690508;28;1331;-88
2022/03/08 01:23:31;;;;;;;10.83;7.60;;;;;;;-0.60;53.99;101824.09;693528;28;1176;-88
2022/03/08 01:23:52;;;;;;;10.75;7.72;;;;;;;-0.59;53.85;101827.53;693437;28;1274;-88
2022/03/08 01:24:13;;;;;;;8.45;7.35;;;;;;;-0.51;53.87;101851.31;690967;28;1622;-88
2022/03/08 01:24:33;;;;;;;8.67;7.03;;;;;;;-0.50;53.68;101850.56;690792;28;1217;-88
2022/03/08 01:25:06;;;;;;;9.63;7.40;;;;;;;-0.49;54.13;101848.16;690767;28;1356;-88
2022/03/08 01:25:26;;;;;;;9.10;6.90;;;;;;;-0.59;53.87;101836.16;690723;28;1222;-88
2022/03/08 01:25:47;;;;;;;8.32;6.88;;;;;;;-0.62;54.15;101828.16;690843;28;1308;-88
2022/03/08 01:26:08;;;;;;;8.47;6.80;;;;;;;-0.65;53.94;101820.19;693390;28;1172;-88
2022/03/08 01:26:29;;;;;;;8.73;6.87;;;;;;;-0.61;54.01;101837.69;696236;28;1364;-87
2022/03/08 01:26:50;;;;;;;8.52;6.72;;;;;;;-0.58;54.17;101848.19;690809;28;1252;-88
2022/03/08 01:27:11;;;;;;;8.70;6.87;;;;;;;-0.72;53.98;101817.84;687594;28;1176;-88
2022/03/08 01:27:31;;;;;;;9.40;7.00;;;;;;;-0.66;54.04;101830.31;690761;28;1194;-88
2022/03/08 01:27:52;;;;;;;10.10;7.07;;;;;;;-0.68;54.01;101821.59;685459;28;1101;-87
2022/03/08 01:28:12;;;;;;;11.43;7.07;;;;;;;-0.73;54.02;101823.72;688041;28;1154;-89
2022/03/08 01:28:34;;;;;;;10.43;7.13;;;;;;;-0.65;54.22;101839.78;687905;28;1914;-88
2022/03/08 01:28:56;;;;;;;9.55;7.10;;;;;;;-0.76;54.49;101819.22;690655;28;1254;-88
2022/03/08 01:29:16;;;;;;;8.48;7.20;;;;;;;-0.63;54.47;101838.28;690798;28;1204;-88
2022/03/08 01:29:37;;;;;;;10.93;7.15;;;;;;;-0.72;54.53;101829.00;690497;28;1215;-88
2022/03/08 01:29:58;;;;;;;10.70;7.10;;;;;;;-0.68;54.42;101844.66;693459;28;956;-88
2022/03/08 01:30:21;;;;;;;10.00;6.72;;;;;;;-0.74;54.29;101832.19;696013;28;1047;-87
2022/03/08 01:30:41;;;;;;;7.88;6.70;;;;;;;-0.78;54.46;101822.41;690370;28;1139;-88
2022/03/08 01:31:02;;;;;;;7.97;6.60;;;;;;;-0.75;54.52;101827.81;690844;28;1331;-89
2022/03/08 01:31:23;;;;;;;8.75;6.80;;;;;;;-0.81;54.38;101822.13;690896;28;799;-88
2022/03/08 01:31:45;;;;;;;9.00;6.63;;;;;;;-0.81;54.51;101820.44;688005;28;1407;-88
2022/03/08 01:32:08;;;;;;;7.88;6.35;;;;;;;-0.83;54.43;101827.09;690655;28;1474;-88
2022/03/08 01:32:28;;;;;;;7.32;5.90;;;;;;;-0.78;54.64;101831.00;693052;28;1243;-87
2022/03/08 01:32:49;;;;;;;7.93;6.07;;;;;;;-0.86;54.55;101825.16;693578;28;755;-88
2022/03/08 01:33:10;;;;;;;8.45;6.40;;;;;;;-0.87;54.60;101827.59;693338;28;1332;-88
2022/03/08 01:33:30;;;;;;;9.82;6.88;;;;;;;-0.85;54.40;101826.06;691592;28;1383;-88
2022/03/08 01:33:51;;;;;;;10.20;7.20;;;;;;;-0.89;54.63;101819.78;690842;28;752;-88
2022/03/08 01:34:12;;;;;;;10.07;7.20;;;;;;;-0.84;54.75;101827.88;690017;28;1282;-88
2022/03/08 01:34:34;;;;;;;9.07;6.88;;;;;;;-0.80;54.65;101836.75;693390;28;1274;-88
2022/03/08 01:34:54;;;;;;;8.93;6.93;;;;;;;-0.81;54.62;101842.63;690705;28;1256;-87
2022/03/08 01:35:16;;;;;;;8.88;6.97;;;;;;;-0.89;54.89;101829.09;690809;28;1081;-88
2022/03/08 01:35:36;;;;;;;8.57;7.28;;;;;;;-0.82;54.49;101846.84;690811;28;845;-88
2022/03/08 01:35:57;;;;;;;8.57;7.10;;;;;;;-0.85;54.88;101844.94;690729;28;1268;-88
2022/03/08 01:36:18;;;;;;;9.25;7.15;;;;;;;-0.92;54.70;101832.31;688121;28;1214;-88
2022/03/08 01:36:38;;;;;;;8.95;7.00;;;;;;;-0.95;54.75;101828.56;690860;28;1198;-88
2022/03/08 01:37:03;;;;;;;9.13;6.80;;;;;;;-0.96;54.92;101832.78;689998;28;1374;-88
2022/03/08 01:37:25;;;;;;;9.60;6.82;;;;;;;-0.96;54.93;101837.91;690790;28;1225;-88
2022/03/08 01:37:46;;;;;;;9.98;6.80;;;;;;;-0.90;55.01;101843.59;690795;28;1385;-88
2022/03/08 01:38:07;;;;;;;10.73;6.97;;;;;;;-1.00;54.95;101825.59;690652;28;1198;-88
2022/03/08 01:38:27;;;;;;;10.48;7.00;;;;;;;-0.96;55.23;101835.34;690821;28;1202;-88
2022/03/08 01:38:48;;;;;;;10.27;6.82;;;;;;;-1.08;55.11;101817.19;690655;28;1077;-88
2022/03/08 01:39:09;;;;;;;9.60;6.70;;;;;;;-1.01;55.07;101834.00;693355;28;1122;-88
2022/03/08 01:39:29;;;;;;;9.45;6.50;;;;;;;-0.91;54.84;101839.25;690317;28;1280;-86
2022/03/08 01:39:50;;;;;;;10.07;6.60;;;;;;;-0.92;54.89;101824.63;693370;28;841;-88
2022/03/08 01:40:15;;;;;;;9.95;6.47;;;;;;;-0.91;54.78;101816.16;696306;28;960;-88
2022/03/08 01:40:35;;;;;;;9.30;6.40;;;;;;;-0.82;54.80;101835.72;690732;28;1310;-88
2022/03/08 01:40:56;;;;;;;10.77;6.70;;;;;;;-0.88;54.57;101826.69;690337;28;1191;-88
2022/03/08 01:41:17;;;;;;;10.77;7.00;;;;;;;-0.83;54.74;101819.41;690768;28;1052;-88
2022/03/08 01:41:38;;;;;;;11.00;7.13;;;;;;;-0.89;55.01;101818.84;687899;28;1284;-88
2022/03/08 01:41:58;;;;;;;8.67;6.93;;;;;;;-0.94;54.70;101808.19;690938;28;1166;-87
2022/03/08 01:42:23;;;;;;;7.50;6.70;;;;;;;-0.91;54.75;101817.81;690715;28;1068;-88
2022/03/08 01:42:48;;;;;;;8.10;6.80;;;;;;;-0.90;54.81;101822.19;688228;28;874;-88